createdAt,value
2023-01-19T00:00:31.998Z,-2.12
2023-01-19T00:01:31.923Z,-2.12
2023-01-19T00:02:31.963Z,-2.15
2023-01-19T00:03:31.885Z,-2.15
2023-01-19T00:04:31.907Z,-2.18
2023-01-19T00:05:31.905Z,-2.18
2023-01-19T00:06:31.917Z,-2.18
2023-01-19T00:07:31.844Z,-2.16
2023-01-19T00:08:31.907Z,-2.20
2023-01-19T00:09:31.837Z,-2.21
2023-01-19T00:10:31.848Z,-2.16
2023-01-19T00:11:31.820Z,-2.12
2023-01-19T00:12:31.815Z,-2.05
2023-01-19T00:13:31.789Z,-1.95
2023-01-19T00:14:31.807Z,-1.90
2023-01-19T00:15:31.773Z,-1.88
2023-01-19T00:16:31.824Z,-1.87
2023-01-19T00:17:31.752Z,-1.88
2023-01-19T00:18:31.760Z,-1.88
2023-01-19T00:19:31.737Z,-1.84
2023-01-19T00:20:31.757Z,-1.79
2023-01-19T00:21:31.729Z,-1.77
2023-01-19T00:22:31.713Z,-1.74
2023-01-19T00:23:31.691Z,-1.79
2023-01-19T00:24:31.693Z,-1.87
2023-01-19T00:25:31.736Z,-1.97
2023-01-19T00:26:31.684Z,-2.03
2023-01-19T00:27:31.653Z,-2.05
2023-01-19T00:28:31.669Z,-2.10
2023-01-19T00:29:31.635Z,-2.23
2023-01-19T00:30:31.630Z,-2.30
2023-01-19T00:31:31.640Z,-2.32
2023-01-19T00:32:31.626Z,-2.37
2023-01-19T00:33:31.597Z,-2.48
2023-01-19T00:34:31.610Z,-2.50
2023-01-19T00:35:31.574Z,-2.53
2023-01-19T00:36:31.587Z,-2.58
2023-01-19T00:37:31.548Z,-2.61
2023-01-19T00:38:31.575Z,-2.67
2023-01-19T00:39:31.527Z,-2.74
2023-01-19T00:40:31.550Z,-2.79
2023-01-19T00:41:31.538Z,-2.85
2023-01-19T00:42:31.518Z,-2.88
2023-01-19T00:43:31.498Z,-2.92
2023-01-19T00:44:31.532Z,-2.97
2023-01-19T00:45:31.515Z,-3.02
2023-01-19T00:46:31.485Z,-3.02
2023-01-19T00:47:31.446Z,-2.94
2023-01-19T00:48:31.473Z,-2.84
2023-01-19T00:49:31.448Z,-2.81
2023-01-19T00:50:31.458Z,-2.77
2023-01-19T00:51:31.415Z,-2.71
2023-01-19T00:52:31.417Z,-2.66
2023-01-19T00:53:31.398Z,-2.67
2023-01-19T00:54:31.406Z,-2.67
2023-01-19T00:55:31.380Z,-2.68
2023-01-19T00:56:31.388Z,-2.66
2023-01-19T00:57:31.351Z,-2.64
2023-01-19T00:58:31.383Z,-2.66
2023-01-19T00:59:31.335Z,-2.67
2023-01-19T01:00:31.348Z,-2.66
2023-01-19T01:01:45.789Z,-2.63
2023-01-19T01:02:31.470Z,-2.61
2023-01-19T01:03:31.319Z,-2.58
2023-01-19T01:04:31.312Z,-2.58
2023-01-19T01:05:31.280Z,-2.55
2023-01-19T01:06:31.290Z,-2.56
2023-01-19T01:07:31.258Z,-2.55
2023-01-19T01:08:31.262Z,-2.53
2023-01-19T01:09:31.239Z,-2.52
2023-01-19T01:10:31.236Z,-2.48
2023-01-19T01:11:31.223Z,-2.37
2023-01-19T01:12:31.223Z,-2.30
2023-01-19T01:13:31.592Z,-2.34
2023-01-19T01:14:31.216Z,-2.35
2023-01-19T01:15:31.196Z,-2.40
2023-01-19T01:16:31.254Z,-2.48
2023-01-19T01:17:31.170Z,-2.58
2023-01-19T01:18:31.174Z,-2.60
2023-01-19T01:19:31.130Z,-2.64
2023-01-19T01:20:31.139Z,-2.71
2023-01-19T01:21:31.111Z,-2.74
2023-01-19T01:22:31.144Z,-2.79
2023-01-19T01:23:31.091Z,-2.82
2023-01-19T01:24:31.102Z,-2.86
2023-01-19T01:25:31.244Z,-2.84
2023-01-19T01:26:31.091Z,-2.89
2023-01-19T01:27:31.064Z,-2.96
2023-01-19T01:28:31.063Z,-2.99
2023-01-19T01:29:31.038Z,-3.06
2023-01-19T01:30:31.072Z,-3.12
2023-01-19T01:31:31.051Z,-3.21
2023-01-19T01:32:31.038Z,-3.30
2023-01-19T01:33:40.866Z,-3.33
2023-01-19T01:34:31.013Z,-3.36
2023-01-19T01:35:30.969Z,-3.30
2023-01-19T01:36:30.993Z,-3.33
2023-01-19T01:37:30.962Z,-3.30
2023-01-19T01:38:30.983Z,-3.27
2023-01-19T01:39:30.949Z,-3.23
2023-01-19T01:40:30.956Z,-3.21
2023-01-19T01:41:30.917Z,-3.12
2023-01-19T01:42:30.937Z,-3.12
2023-01-19T01:43:30.904Z,-3.12
2023-01-19T01:44:30.906Z,-3.10
2023-01-19T01:45:30.953Z,-3.05
2023-01-19T01:46:30.883Z,-2.97
2023-01-19T01:47:30.865Z,-2.94
2023-01-19T01:48:30.875Z,-2.94
2023-01-19T01:49:30.847Z,-2.92
2023-01-19T01:50:30.858Z,-2.92
2023-01-19T01:51:30.826Z,-2.96
2023-01-19T01:52:30.839Z,-2.94
2023-01-19T01:53:30.812Z,-2.88
2023-01-19T01:54:30.818Z,-2.85
2023-01-19T01:55:30.788Z,-2.86
2023-01-19T01:56:30.786Z,-2.85
2023-01-19T01:57:30.752Z,-2.84
2023-01-19T01:58:30.774Z,-2.82
2023-01-19T01:59:30.734Z,-2.79
2023-01-19T02:00:30.756Z,-2.77
2023-01-19T02:01:30.779Z,-2.81
2023-01-19T02:02:30.724Z,-2.81
2023-01-19T02:03:30.708Z,-2.81
2023-01-19T02:04:30.718Z,-2.82
2023-01-19T02:05:30.685Z,-2.86
2023-01-19T02:06:30.680Z,-2.92
2023-01-19T02:07:30.656Z,-2.96
2023-01-19T02:08:30.674Z,-2.97
2023-01-19T02:09:37.395Z,-3.00
2023-01-19T02:10:30.657Z,-3.05
2023-01-19T02:11:30.652Z,-3.09
2023-01-19T02:12:30.623Z,-3.12
2023-01-19T02:13:30.592Z,-3.17
2023-01-19T02:14:30.629Z,-3.20
2023-01-19T02:15:30.575Z,-3.20
2023-01-19T02:16:30.646Z,-3.20
2023-01-19T02:17:30.567Z,-3.24
2023-01-19T02:18:30.591Z,-3.25
2023-01-19T02:19:30.535Z,-3.31
2023-01-19T02:20:30.540Z,-3.31
2023-01-19T02:21:30.518Z,-3.35
2023-01-19T02:22:30.532Z,-3.38
2023-01-19T02:23:30.499Z,-3.39
2023-01-19T02:24:30.512Z,-3.39
2023-01-19T02:25:30.491Z,-3.38
2023-01-19T02:26:30.484Z,-3.38
2023-01-19T02:27:30.464Z,-3.38
2023-01-19T02:28:30.474Z,-3.31
2023-01-19T02:29:30.451Z,-3.24
2023-01-19T02:30:30.482Z,-3.17
2023-01-19T02:31:30.436Z,-3.17
2023-01-19T02:32:30.437Z,-3.18
2023-01-19T02:33:30.403Z,-3.23
2023-01-19T02:34:30.440Z,-3.25
2023-01-19T02:35:30.378Z,-3.30
2023-01-19T02:36:30.392Z,-3.38
2023-01-19T02:37:30.359Z,-3.42
2023-01-19T02:38:30.375Z,-3.43
2023-01-19T02:39:30.345Z,-3.45
2023-01-19T02:40:30.360Z,-3.54
2023-01-19T02:41:30.321Z,-3.59
2023-01-19T02:42:30.357Z,-3.59
2023-01-19T02:43:30.300Z,-3.60
2023-01-19T02:44:30.306Z,-3.54
2023-01-19T02:45:30.280Z,-3.54
2023-01-19T02:46:30.298Z,-3.48
2023-01-19T02:47:30.268Z,-3.43
2023-01-19T02:48:30.279Z,-3.39
2023-01-19T02:49:30.302Z,-3.41
2023-01-19T02:50:32.044Z,-3.43
2023-01-19T02:51:30.240Z,-3.52
2023-01-19T02:52:30.250Z,-3.56
2023-01-19T02:53:30.210Z,-3.60
2023-01-19T02:54:30.220Z,-3.59
2023-01-19T02:55:30.190Z,-3.49
2023-01-19T02:56:30.185Z,-3.42
2023-01-19T02:57:30.279Z,-3.36
2023-01-19T02:58:30.179Z,-3.33
2023-01-19T02:59:30.138Z,-3.28
2023-01-19T03:00:30.147Z,-3.28
2023-01-19T03:01:30.168Z,-3.35
2023-01-19T03:02:30.171Z,-3.36
2023-01-19T03:03:30.112Z,-3.36
2023-01-19T03:04:30.110Z,-3.38
2023-01-19T03:05:30.094Z,-3.39
2023-01-19T03:06:30.099Z,-3.41
2023-01-19T03:07:30.073Z,-3.42
2023-01-19T03:08:30.068Z,-3.45
2023-01-19T03:09:30.077Z,-3.48
2023-01-19T03:10:30.055Z,-3.49
2023-01-19T03:11:30.025Z,-3.56
2023-01-19T03:12:30.049Z,-3.56
2023-01-19T03:13:30.024Z,-3.59
2023-01-19T03:14:30.008Z,-3.63
2023-01-19T03:15:30.056Z,-3.71
2023-01-19T03:16:30.011Z,-3.75
2023-01-19T03:17:29.981Z,-3.82
2023-01-19T03:18:29.960Z,-3.86
2023-01-19T03:19:29.963Z,-3.88
2023-01-19T03:20:29.936Z,-3.86
2023-01-19T03:21:29.951Z,-3.86
2023-01-19T03:22:29.923Z,-3.83
2023-01-19T03:23:29.922Z,-3.86
2023-01-19T03:24:29.897Z,-3.88
2023-01-19T03:25:29.908Z,-3.86
2023-01-19T03:26:29.885Z,-3.88
2023-01-19T03:27:29.881Z,-3.91
2023-01-19T03:28:29.870Z,-3.93
2023-01-19T03:29:29.868Z,-3.93
2023-01-19T03:30:29.838Z,-3.94
2023-01-19T03:31:29.848Z,-3.91
2023-01-19T03:32:29.829Z,-3.86
2023-01-19T03:33:29.838Z,-3.83
2023-01-19T03:34:29.794Z,-3.81
2023-01-19T03:35:29.834Z,-3.82
2023-01-19T03:36:29.772Z,-3.81
2023-01-19T03:37:29.789Z,-3.82
2023-01-19T03:38:29.760Z,-3.83
2023-01-19T03:39:29.793Z,-3.85
2023-01-19T03:40:29.745Z,-3.86
2023-01-19T03:41:29.792Z,-3.90
2023-01-19T03:42:29.728Z,-3.85
2023-01-19T03:43:29.725Z,-3.86
2023-01-19T03:45:40.618Z,-3.76
2023-01-19T03:46:41.659Z,-3.72
2023-01-19T03:47:41.604Z,-3.72
2023-01-19T03:50:08.853Z,-3.75
2023-01-19T03:50:13.891Z,-3.76
2023-01-19T03:51:13.866Z,-3.75
2023-01-19T03:52:13.890Z,-3.79
2023-01-19T03:53:13.842Z,-3.82
2023-01-19T03:54:13.878Z,-3.82
2023-01-19T03:55:13.833Z,-3.83
2023-01-19T03:56:13.838Z,-3.86
2023-01-19T03:57:13.817Z,-3.91
2023-01-19T03:58:13.832Z,-3.90
2023-01-19T03:59:13.784Z,-3.93
2023-01-19T04:00:13.806Z,-3.99
2023-01-19T04:01:13.823Z,-3.96
2023-01-19T04:02:13.812Z,-3.88
2023-01-19T04:03:13.775Z,-3.86
2023-01-19T04:04:13.783Z,-3.85
2023-01-19T04:05:13.751Z,-3.79
2023-01-19T04:06:13.729Z,-3.83
2023-01-19T04:07:13.701Z,-3.83
2023-01-19T04:08:13.707Z,-3.85
2023-01-19T04:09:13.700Z,-3.83
2023-01-19T04:10:13.704Z,-3.85
2023-01-19T04:11:13.660Z,-3.88
2023-01-19T04:12:13.686Z,-3.93
2023-01-19T04:13:13.649Z,-3.93
2023-01-19T04:14:13.653Z,-3.96
2023-01-19T04:15:13.673Z,-3.99
2023-01-19T04:16:13.692Z,-3.96
2023-01-19T04:17:13.603Z,-3.91
2023-01-19T04:18:13.635Z,-3.86
2023-01-19T04:19:13.581Z,-3.81
2023-01-19T04:20:13.679Z,-3.79
2023-01-19T04:21:13.567Z,-3.82
2023-01-19T04:22:13.584Z,-3.82
2023-01-19T04:23:13.540Z,-3.79
2023-01-19T04:24:13.570Z,-3.81
2023-01-19T04:25:13.546Z,-3.81
2023-01-19T04:26:13.531Z,-3.88
2023-01-19T04:27:13.508Z,-3.88
2023-01-19T04:28:13.513Z,-3.90
2023-01-19T04:29:13.484Z,-3.90
2023-01-19T04:30:13.506Z,-3.94
2023-01-19T04:31:13.522Z,-3.93
2023-01-19T04:32:13.476Z,-3.91
2023-01-19T04:33:13.448Z,-3.90
2023-01-19T04:34:13.490Z,-3.88
2023-01-19T04:35:13.434Z,-3.88
2023-01-19T04:36:13.468Z,-3.90
2023-01-19T04:37:13.414Z,-3.93
2023-01-19T04:38:13.430Z,-3.94
2023-01-19T04:39:13.379Z,-3.86
2023-01-19T04:40:13.394Z,-3.81
2023-01-19T04:41:13.373Z,-3.76
2023-01-19T04:42:13.387Z,-3.69
2023-01-19T04:43:13.367Z,-3.66
2023-01-19T04:44:13.361Z,-3.64
2023-01-19T04:45:13.325Z,-3.64
2023-01-19T04:46:13.423Z,-3.67
2023-01-19T04:47:13.336Z,-3.72
2023-01-19T04:48:13.328Z,-3.76
2023-01-19T04:49:13.285Z,-3.81
2023-01-19T04:50:13.298Z,-3.82
2023-01-19T04:51:13.260Z,-3.90
2023-01-19T04:52:13.327Z,-3.91
2023-01-19T04:53:13.258Z,-3.97
2023-01-19T04:54:13.283Z,-3.99
2023-01-19T04:55:13.231Z,-3.99
2023-01-19T04:56:13.243Z,-3.93
2023-01-19T04:57:13.258Z,-3.90
2023-01-19T04:58:13.229Z,-3.86
2023-01-19T04:59:13.187Z,-3.82
2023-01-19T05:00:13.205Z,-3.79
2023-01-19T05:01:13.260Z,-3.79
2023-01-19T05:02:13.214Z,-3.79
2023-01-19T05:03:13.193Z,-3.78
2023-01-19T05:04:13.160Z,-3.82
2023-01-19T05:05:13.127Z,-3.79
2023-01-19T05:06:13.150Z,-3.81
2023-01-19T05:07:13.151Z,-3.82
2023-01-19T05:08:13.121Z,-3.83
2023-01-19T05:09:13.112Z,-3.88
2023-01-19T05:10:13.119Z,-3.94
2023-01-19T05:11:13.065Z,-3.94
2023-01-19T05:12:13.083Z,-3.93
2023-01-19T05:13:13.063Z,-3.94
2023-01-19T05:14:13.075Z,-3.96
2023-01-19T05:15:13.025Z,-3.97
2023-01-19T05:16:13.084Z,-3.93
2023-01-19T05:17:13.011Z,-3.94
2023-01-19T05:18:13.034Z,-3.99
2023-01-19T05:19:12.991Z,-3.99
2023-01-19T05:20:15.938Z,-3.96
2023-01-19T05:21:12.974Z,-3.93
2023-01-19T05:22:12.975Z,-3.90
2023-01-19T05:23:12.962Z,-3.88
2023-01-19T05:24:12.955Z,-3.85
2023-01-19T05:25:12.969Z,-3.85
2023-01-19T05:26:12.940Z,-3.86
2023-01-19T05:27:12.912Z,-3.90
2023-01-19T05:28:12.932Z,-3.94
2023-01-19T05:29:12.895Z,-3.97
2023-01-19T05:30:12.916Z,-3.97
2023-01-19T05:31:13.112Z,-3.99
2023-01-19T05:32:12.915Z,-3.97
2023-01-19T05:33:12.876Z,-3.96
2023-01-19T05:34:12.850Z,-3.86
2023-01-19T05:35:12.849Z,-3.86
2023-01-19T05:36:12.849Z,-3.85
2023-01-19T05:37:12.815Z,-3.83
2023-01-19T05:38:13.623Z,-3.83
2023-01-19T05:39:12.795Z,-3.81
2023-01-19T05:40:12.791Z,-3.79
2023-01-19T05:41:12.812Z,-3.71
2023-01-19T05:42:12.775Z,-3.71
2023-01-19T05:43:12.776Z,-3.66
2023-01-19T05:44:12.792Z,-3.66
2023-01-19T05:45:12.750Z,-3.66
2023-01-19T05:46:12.736Z,-3.63
2023-01-19T05:47:12.716Z,-3.63
2023-01-19T05:48:12.726Z,-3.62
2023-01-19T05:49:12.731Z,-3.62
2023-01-19T05:50:12.699Z,-3.64
2023-01-19T05:51:12.675Z,-3.69
2023-01-19T05:52:12.698Z,-3.71
2023-01-19T05:53:12.648Z,-3.75
2023-01-19T05:54:12.667Z,-3.83
2023-01-19T05:55:13.152Z,-3.83
2023-01-19T05:56:12.665Z,-3.82
2023-01-19T05:57:12.616Z,-3.82
2023-01-19T05:58:12.625Z,-3.82
2023-01-19T05:59:12.588Z,-3.82
2023-01-19T06:00:12.684Z,-3.81
2023-01-19T06:01:12.591Z,-3.79
2023-01-19T06:02:12.661Z,-3.79
2023-01-19T06:03:12.605Z,-3.82
2023-01-19T06:04:12.591Z,-3.90
2023-01-19T06:05:12.535Z,-3.88
2023-01-19T06:06:12.565Z,-3.86
2023-01-19T06:07:12.531Z,-3.90
2023-01-19T06:08:12.538Z,-3.94
2023-01-19T06:09:12.510Z,-3.99
2023-01-19T06:10:12.521Z,-3.94
2023-01-19T06:11:12.491Z,-3.91
2023-01-19T06:12:12.496Z,-3.88
2023-01-19T06:13:12.489Z,-3.90
2023-01-19T06:14:12.458Z,-3.86
2023-01-19T06:15:12.488Z,-3.86
2023-01-19T06:16:12.474Z,-3.90
2023-01-19T06:17:12.441Z,-3.91
2023-01-19T06:18:12.402Z,-3.97
2023-01-19T06:19:12.423Z,-4.01
2023-01-19T06:20:12.380Z,-4.03
2023-01-19T06:21:12.463Z,-4.01
2023-01-19T06:22:12.359Z,-4.00
2023-01-19T06:23:12.439Z,-3.96
2023-01-19T06:24:13.826Z,-3.96
2023-01-19T06:25:12.349Z,-3.94
2023-01-19T06:26:12.336Z,-3.94
2023-01-19T06:27:12.324Z,-3.93
2023-01-19T06:28:12.335Z,-3.96
2023-01-19T06:29:12.386Z,-3.96
2023-01-19T06:30:12.281Z,-3.94
2023-01-19T06:31:12.344Z,-3.97
2023-01-19T06:32:12.284Z,-3.97
2023-01-19T06:33:12.209Z,-4.01
2023-01-19T06:34:12.239Z,-4.03
2023-01-19T06:35:12.240Z,-4.07
2023-01-19T06:36:12.188Z,-4.04
2023-01-19T06:37:12.197Z,-3.99
2023-01-19T06:38:12.201Z,-3.96
2023-01-19T06:39:12.215Z,-3.96
2023-01-19T06:40:13.716Z,-4.01
2023-01-19T06:41:12.162Z,-4.03
2023-01-19T06:42:12.166Z,-4.03
2023-01-19T06:43:12.234Z,-3.99
2023-01-19T06:44:12.158Z,-3.99
2023-01-19T06:45:12.145Z,-3.99
2023-01-19T06:46:12.157Z,-3.94
2023-01-19T06:47:15.480Z,-3.93
2023-01-19T06:48:12.061Z,-3.90
2023-01-19T06:49:12.068Z,-3.88
2023-01-19T06:50:12.077Z,-3.85
2023-01-19T06:51:12.083Z,-3.82
2023-01-19T06:52:12.012Z,-3.83
2023-01-19T06:53:12.039Z,-3.83
2023-01-19T06:54:12.012Z,-3.90
2023-01-19T06:55:12.218Z,-3.91
2023-01-19T06:56:11.971Z,-3.88
2023-01-19T06:57:11.991Z,-3.79
2023-01-19T06:58:11.957Z,-3.76
2023-01-19T06:59:11.977Z,-3.76
2023-01-19T07:00:11.940Z,-3.79
2023-01-19T07:01:11.987Z,-3.82
2023-01-19T07:02:26.255Z,-3.86
2023-01-19T07:03:11.998Z,-3.90
2023-01-19T07:04:11.889Z,-3.91
2023-01-19T07:05:11.952Z,-3.86
2023-01-19T07:06:11.883Z,-3.79
2023-01-19T07:07:11.893Z,-3.75
2023-01-19T07:08:11.866Z,-3.75
2023-01-19T07:09:11.858Z,-3.72
2023-01-19T07:10:11.858Z,-3.72
2023-01-19T07:11:22.288Z,-3.75
2023-01-19T07:12:11.877Z,-3.78
2023-01-19T07:13:11.824Z,-3.81
2023-01-19T07:14:11.821Z,-3.85
2023-01-19T07:15:11.830Z,-3.88
2023-01-19T07:16:11.789Z,-3.85
2023-01-19T07:17:11.793Z,-3.86
2023-01-19T07:18:11.758Z,-3.85
2023-01-19T07:19:11.767Z,-3.83
2023-01-19T07:20:11.747Z,-3.82
2023-01-19T07:21:11.774Z,-3.83
2023-01-19T07:22:11.718Z,-3.82
2023-01-19T07:23:11.741Z,-3.83
2023-01-19T07:24:11.716Z,-3.83
2023-01-19T07:25:11.706Z,-3.83
2023-01-19T07:26:11.678Z,-3.83
2023-01-19T07:27:11.744Z,-3.83
2023-01-19T07:28:11.675Z,-3.86
2023-01-19T07:29:11.671Z,-3.93
2023-01-19T07:30:11.631Z,-3.94
2023-01-19T07:31:11.743Z,-3.96
2023-01-19T07:32:11.622Z,-3.97
2023-01-19T07:33:11.642Z,-3.96
2023-01-19T07:34:12.578Z,-3.90
2023-01-19T07:35:11.603Z,-3.79
2023-01-19T07:36:11.611Z,-3.78
2023-01-19T07:37:11.592Z,-3.69
2023-01-19T07:38:11.554Z,-3.66
2023-01-19T07:39:11.656Z,-3.60
2023-01-19T07:40:11.544Z,-3.57
2023-01-19T07:41:11.559Z,-3.59
2023-01-19T07:42:11.520Z,-3.60
2023-01-19T07:43:11.522Z,-3.57
2023-01-19T07:44:11.507Z,-3.57
2023-01-19T07:45:11.537Z,-3.60
2023-01-19T07:46:11.572Z,-3.64
2023-01-19T07:47:11.503Z,-3.69
2023-01-19T07:48:11.475Z,-3.72
2023-01-19T07:49:11.472Z,-3.78
2023-01-19T07:50:11.445Z,-3.79
2023-01-19T07:51:12.877Z,-3.81
2023-01-19T07:52:11.414Z,-3.83
2023-01-19T07:53:11.456Z,-3.88
2023-01-19T07:54:11.397Z,-3.90
2023-01-19T07:55:11.420Z,-3.91
2023-01-19T07:56:11.391Z,-3.85
2023-01-19T07:57:11.400Z,-3.83
2023-01-19T07:58:11.364Z,-3.82
2023-01-19T07:59:11.386Z,-3.76
2023-01-19T08:00:11.346Z,-3.75
2023-01-19T08:01:11.489Z,-3.75
2023-01-19T08:02:11.411Z,-3.75
2023-01-19T08:03:11.339Z,-3.76
2023-01-19T08:04:11.346Z,-3.78
2023-01-19T08:05:11.303Z,-3.69
2023-01-19T08:06:11.309Z,-3.71
2023-01-19T08:07:11.286Z,-3.71
2023-01-19T08:08:11.262Z,-3.71
2023-01-19T08:09:11.313Z,-3.66
2023-01-19T08:10:11.271Z,-3.66
2023-01-19T08:11:11.314Z,-3.66
2023-01-19T08:12:11.219Z,-3.63
2023-01-19T08:13:11.244Z,-3.60
2023-01-19T08:14:11.206Z,-3.59
2023-01-19T08:15:11.238Z,-3.56
2023-01-19T08:16:11.240Z,-3.57
2023-01-19T08:17:11.183Z,-3.52
2023-01-19T08:18:11.156Z,-3.46
2023-01-19T08:19:11.189Z,-3.43
2023-01-19T08:20:11.179Z,-3.43
2023-01-19T08:21:11.252Z,-3.41
2023-01-19T08:22:11.139Z,-3.36
2023-01-19T08:23:11.140Z,-3.31
2023-01-19T08:24:11.224Z,-3.33
2023-01-19T08:25:11.135Z,-3.31
2023-01-19T08:26:11.141Z,-3.28
2023-01-19T08:27:11.969Z,-3.30
2023-01-19T08:28:11.059Z,-3.31
2023-01-19T08:29:11.064Z,-3.31
2023-01-19T08:30:11.048Z,-3.28
2023-01-19T08:31:20.164Z,-3.25
2023-01-19T08:32:11.119Z,-3.23
2023-01-19T08:33:11.029Z,-3.18
2023-01-19T08:34:11.005Z,-3.18
2023-01-19T08:35:11.026Z,-3.15
2023-01-19T08:36:10.976Z,-3.09
2023-01-19T08:37:11.075Z,-3.12
2023-01-19T08:38:10.975Z,-3.07
2023-01-19T08:39:11.051Z,-3.06
2023-01-19T08:40:10.938Z,-2.97
2023-01-19T08:41:10.949Z,-2.89
2023-01-19T08:42:10.928Z,-2.81
2023-01-19T08:43:10.940Z,-2.71
2023-01-19T08:44:10.900Z,-2.60
2023-01-19T08:45:10.922Z,-2.55
2023-01-19T08:46:10.875Z,-2.48
2023-01-19T08:47:10.919Z,-2.40
2023-01-19T08:48:10.868Z,-2.34
2023-01-19T08:49:10.880Z,-2.32
2023-01-19T08:50:10.850Z,-2.26
2023-01-19T08:51:10.874Z,-2.23
2023-01-19T08:52:10.831Z,-2.16
2023-01-19T08:53:10.861Z,-2.10
2023-01-19T08:54:10.803Z,-2.09
2023-01-19T08:55:10.820Z,-2.05
2023-01-19T08:56:10.794Z,-2.00
2023-01-19T08:57:10.814Z,-1.97
2023-01-19T08:58:10.783Z,-1.92
2023-01-19T08:59:12.932Z,-1.88
2023-01-19T09:00:10.783Z,-1.84
2023-01-19T09:01:10.798Z,-1.79
2023-01-19T09:02:10.847Z,-1.72
2023-01-19T09:03:10.803Z,-1.64
2023-01-19T09:04:10.721Z,-1.56
2023-01-19T09:05:10.723Z,-1.51
2023-01-19T09:06:10.683Z,-1.46
2023-01-19T09:07:10.719Z,-1.38
2023-01-19T09:08:10.676Z,-1.30
2023-01-19T09:09:10.691Z,-1.20
2023-01-19T09:10:10.685Z,-1.22
2023-01-19T09:11:10.659Z,-1.20
2023-01-19T09:12:10.621Z,-1.19
2023-01-19T09:13:10.642Z,-1.19
2023-01-19T09:14:10.609Z,-1.17
2023-01-19T09:15:10.616Z,-1.16
2023-01-19T09:16:10.612Z,-1.13
2023-01-19T09:17:10.596Z,-1.13
2023-01-19T09:18:10.631Z,-1.15
2023-01-19T09:19:10.609Z,-1.13
2023-01-19T09:20:10.568Z,-1.15
2023-01-19T09:21:10.545Z,-1.15
2023-01-19T09:22:10.521Z,-1.13
2023-01-19T09:23:10.527Z,-1.16
2023-01-19T09:24:10.522Z,-1.16
2023-01-19T09:25:10.527Z,-1.12
2023-01-19T09:26:10.494Z,-1.09
2023-01-19T09:27:10.489Z,-1.05
2023-01-19T09:28:10.473Z,-1.01
2023-01-19T09:29:10.475Z,-0.98
2023-01-19T09:30:10.448Z,-0.94
2023-01-19T09:31:10.529Z,-0.89
2023-01-19T09:32:10.453Z,-0.89
2023-01-19T09:33:10.451Z,-0.85
2023-01-19T09:34:10.463Z,-0.76
2023-01-19T09:35:10.417Z,-0.72
2023-01-19T09:36:10.380Z,-0.64
2023-01-19T09:37:10.401Z,-0.57
2023-01-19T09:38:10.373Z,-0.44
2023-01-19T09:39:10.383Z,-0.31
2023-01-19T09:40:10.362Z,-0.16
2023-01-19T09:41:10.347Z,-0.05
2023-01-19T09:42:10.314Z,0.10
2023-01-19T09:43:10.330Z,0.28
2023-01-19T09:44:10.339Z,0.49
2023-01-19T09:45:12.110Z,0.68
2023-01-19T09:46:16.811Z,0.90
2023-01-19T09:47:10.295Z,0.90
2023-01-19T09:48:10.251Z,1.05
2023-01-19T09:49:10.260Z,1.32
2023-01-19T09:50:10.294Z,1.68
2023-01-19T09:51:10.270Z,1.80
2023-01-19T09:52:10.223Z,1.40
2023-01-19T09:53:10.267Z,1.24
2023-01-19T09:54:10.194Z,1.16
2023-01-19T09:55:10.210Z,1.08
2023-01-19T09:56:10.192Z,0.98
2023-01-19T09:57:10.194Z,0.90
2023-01-19T09:58:10.154Z,0.90
2023-01-19T09:59:10.170Z,0.86
2023-01-19T10:00:10.142Z,0.87
2023-01-19T10:01:10.236Z,0.93
2023-01-19T10:02:10.122Z,0.96
2023-01-19T10:03:10.159Z,0.91
2023-01-19T10:04:10.099Z,0.90
2023-01-19T10:05:10.112Z,0.94
2023-01-19T10:06:10.082Z,0.96
2023-01-19T10:07:10.096Z,0.98
2023-01-19T10:08:10.058Z,1.00
2023-01-19T10:09:10.058Z,0.96
2023-01-19T10:10:10.038Z,0.94
2023-01-19T10:11:10.037Z,0.91
2023-01-19T10:12:10.019Z,0.86
2023-01-19T10:13:10.031Z,0.80
2023-01-19T10:14:11.205Z,0.80
2023-01-19T10:15:09.992Z,0.78
2023-01-19T10:16:10.012Z,0.73
2023-01-19T10:17:09.983Z,0.72
2023-01-19T10:18:09.955Z,0.76
2023-01-19T10:19:09.970Z,0.75
2023-01-19T10:20:09.928Z,0.73
2023-01-19T10:21:09.933Z,0.70
2023-01-19T10:22:09.924Z,0.69
2023-01-19T10:23:09.941Z,0.65
2023-01-19T10:24:09.896Z,0.62
2023-01-19T10:25:09.901Z,0.61
2023-01-19T10:26:09.899Z,0.53
2023-01-19T10:27:09.865Z,0.51
2023-01-19T10:28:09.894Z,0.53
2023-01-19T10:29:11.618Z,0.51
2023-01-19T10:30:09.869Z,0.47
2023-01-19T10:31:09.922Z,0.47
2023-01-19T10:32:09.901Z,0.47
2023-01-19T10:33:09.844Z,0.49
2023-01-19T10:34:09.804Z,0.47
2023-01-19T10:35:09.791Z,0.49
2023-01-19T10:36:09.823Z,0.51
2023-01-19T10:37:09.785Z,0.53
2023-01-19T10:38:09.787Z,0.55
2023-01-19T10:39:09.792Z,0.57
2023-01-19T10:40:09.920Z,0.61
2023-01-19T10:41:09.715Z,0.65
2023-01-19T10:42:09.782Z,0.65
2023-01-19T10:43:09.706Z,0.69
2023-01-19T10:44:09.740Z,0.69
2023-01-19T10:45:09.677Z,0.68
2023-01-19T10:46:09.883Z,0.69
2023-01-19T10:47:09.660Z,0.70
2023-01-19T10:48:09.700Z,0.73
2023-01-19T10:49:09.677Z,0.75
2023-01-19T10:50:09.664Z,0.75
2023-01-19T10:51:09.641Z,0.72
2023-01-19T10:52:09.644Z,0.68
2023-01-19T10:53:09.638Z,0.68
2023-01-19T10:54:09.635Z,0.69
2023-01-19T10:55:09.640Z,0.69
2023-01-19T10:56:09.594Z,0.66
2023-01-19T10:57:09.568Z,0.69
2023-01-19T10:58:09.580Z,0.66
2023-01-19T10:59:09.574Z,0.69
2023-01-19T11:00:09.606Z,0.68
2023-01-19T11:01:09.666Z,0.70
2023-01-19T11:02:09.681Z,0.72
2023-01-19T11:03:09.590Z,0.75
2023-01-19T11:04:09.527Z,0.75
2023-01-19T11:05:09.480Z,0.78
2023-01-19T11:06:09.503Z,0.76
2023-01-19T11:07:09.462Z,0.75
2023-01-19T11:08:09.498Z,0.72
2023-01-19T11:09:09.440Z,0.73
2023-01-19T11:10:09.479Z,0.72
2023-01-19T11:11:09.420Z,0.73
2023-01-19T11:12:09.424Z,0.72
2023-01-19T11:13:09.400Z,0.72
2023-01-19T11:14:09.422Z,0.75
2023-01-19T11:15:09.385Z,0.75
2023-01-19T11:16:11.612Z,0.73
2023-01-19T11:17:09.361Z,0.76
2023-01-19T11:18:09.366Z,0.76
2023-01-19T11:19:09.339Z,0.79
2023-01-19T11:20:09.349Z,0.79
2023-01-19T11:21:09.322Z,0.79
2023-01-19T11:22:09.333Z,0.86
2023-01-19T11:23:09.302Z,0.87
2023-01-19T11:24:09.330Z,0.93
2023-01-19T11:25:09.297Z,0.96
2023-01-19T11:26:09.303Z,0.97
2023-01-19T11:27:09.263Z,1.02
2023-01-19T11:28:09.263Z,1.02
2023-01-19T11:29:09.245Z,1.08
2023-01-19T11:30:09.257Z,1.08
2023-01-19T11:31:09.279Z,1.12
2023-01-19T11:32:09.275Z,1.14
2023-01-19T11:33:09.204Z,1.20
2023-01-19T11:34:09.219Z,1.26
2023-01-19T11:35:09.176Z,1.30
2023-01-19T11:36:09.185Z,1.29
2023-01-19T11:37:09.170Z,1.32
2023-01-19T11:38:09.167Z,1.30
2023-01-19T11:39:09.152Z,1.30
2023-01-19T11:40:09.143Z,1.30
2023-01-19T11:41:09.130Z,1.29
2023-01-19T11:42:09.121Z,1.29
2023-01-19T11:43:09.099Z,1.29
2023-01-19T11:44:09.109Z,1.32
2023-01-19T11:45:09.087Z,1.33
2023-01-19T11:46:09.109Z,1.36
2023-01-19T11:47:09.066Z,1.40
2023-01-19T11:48:09.080Z,1.40
2023-01-19T11:49:09.037Z,1.41
2023-01-19T11:50:09.047Z,1.37
2023-01-19T11:51:09.025Z,1.37
2023-01-19T11:52:09.041Z,1.34
2023-01-19T11:53:08.997Z,1.34
2023-01-19T11:54:09.008Z,1.40
2023-01-19T11:55:08.974Z,1.44
2023-01-19T11:56:08.979Z,1.47
2023-01-19T11:57:08.974Z,1.52
2023-01-19T11:58:08.976Z,1.55
2023-01-19T11:59:08.937Z,1.62
2023-01-19T12:00:08.953Z,1.69
2023-01-19T12:01:08.934Z,1.73
2023-01-19T12:02:09.654Z,1.77
2023-01-19T12:03:08.954Z,1.77
2023-01-19T12:04:08.924Z,1.77
2023-01-19T12:05:08.881Z,1.79
2023-01-19T12:06:08.878Z,1.73
2023-01-19T12:07:08.882Z,1.79
2023-01-19T12:08:09.119Z,1.79
2023-01-19T12:09:08.842Z,1.73
2023-01-19T12:10:08.860Z,1.70
2023-01-19T12:11:08.814Z,1.65
2023-01-19T12:12:08.825Z,1.66
2023-01-19T12:13:08.795Z,1.66
2023-01-19T12:14:08.831Z,1.68
2023-01-19T12:15:08.774Z,1.69
2023-01-19T12:16:08.799Z,1.69
2023-01-19T12:17:08.762Z,1.69
2023-01-19T12:18:08.771Z,1.70
2023-01-19T12:19:08.734Z,1.69
2023-01-19T12:20:08.744Z,1.65
2023-01-19T12:21:08.729Z,1.62
2023-01-19T12:22:08.717Z,1.58
2023-01-19T12:23:08.739Z,1.52
2023-01-19T12:24:08.806Z,1.50
2023-01-19T12:25:08.675Z,1.47
2023-01-19T12:26:08.692Z,1.47
2023-01-19T12:27:08.652Z,1.45
2023-01-19T12:28:08.680Z,1.47
2023-01-19T12:29:08.647Z,1.44
2023-01-19T12:30:08.655Z,1.42
2023-01-19T12:31:08.739Z,1.42
2023-01-19T12:32:08.635Z,1.44
2023-01-19T12:33:08.612Z,1.41
2023-01-19T12:34:08.628Z,1.42
2023-01-19T12:35:08.578Z,1.40
2023-01-19T12:36:08.590Z,1.42
2023-01-19T12:37:08.557Z,1.42
2023-01-19T12:38:08.575Z,1.44
2023-01-19T12:39:08.543Z,1.45
2023-01-19T12:40:08.551Z,1.42
2023-01-19T12:41:08.517Z,1.42
2023-01-19T12:42:08.529Z,1.44
2023-01-19T12:43:08.506Z,1.47
2023-01-19T12:44:08.535Z,1.42
2023-01-19T12:45:08.504Z,1.44
2023-01-19T12:46:08.535Z,1.44
2023-01-19T12:47:08.453Z,1.45
2023-01-19T12:48:08.458Z,1.45
2023-01-19T12:49:08.432Z,1.44
2023-01-19T12:50:08.454Z,1.44
2023-01-19T12:51:08.427Z,1.50
2023-01-19T12:52:08.436Z,1.55
2023-01-19T12:53:08.425Z,1.63
2023-01-19T12:54:08.426Z,1.70
2023-01-19T12:55:08.385Z,1.73
2023-01-19T12:56:08.398Z,1.81
2023-01-19T12:57:08.360Z,1.95
2023-01-19T12:58:08.383Z,2.09
2023-01-19T12:59:08.334Z,2.06
2023-01-19T13:00:08.363Z,2.06
2023-01-19T13:01:08.373Z,2.07